Time;durP1;ratioP1;P1;durP2;ratioP2;P2;SDS_P1;SDS_P2;PMS_P1;PMS_P2;Temp;Humidity;BMP_temperature;BMP_pressure;BME280_temperature;BME280_humidity;BME280_pressure;Samples;Min_cycle;Max_cycle;Signal;HPM_P1;HPM_P2
2021/09/03 00:02:05;;;;;;;6.57;4.30;;;;;;;;;;5023164;28;20056;-82
2021/09/03 00:04:31;;;;;;;7.25;4.13;;;;;;;;;;5017480;28;20072;-82
2021/09/03 00:06:59;;;;;;;7.07;4.10;;;;;;;;;;5023602;28;20063;-82
2021/09/03 00:09:25;;;;;;;7.43;4.13;;;;;;;;;;5022109;28;20053;-82
2021/09/03 00:11:51;;;;;;;7.70;4.10;;;;;;;;;;5022939;28;20049;-81
2021/09/03 00:14:18;;;;;;;7.18;4.28;;;;;;;;;;5022388;28;20476;-82
2021/09/03 00:16:44;;;;;;;5.82;3.97;;;;;;;;;;5015908;28;20053;-81
2021/09/03 00:19:10;;;;;;;7.60;4.32;;;;;;;;;;5016779;28;20120;-81
2021/09/03 00:21:37;;;;;;;7.75;4.65;;;;;;;;;;5019152;28;20053;-82
2021/09/03 00:24:03;;;;;;;6.82;3.97;;;;;;;;;;5013937;28;20425;-82
2021/09/03 00:26:30;;;;;;;6.57;3.83;;;;;;;;;;5029253;28;20054;-82
2021/09/03 00:28:56;;;;;;;7.30;4.18;;;;;;;;;;5026563;28;21384;-82
2021/09/03 00:31:23;;;;;;;7.70;4.43;;;;;;;;;;5015607;28;20068;-82
2021/09/03 00:33:49;;;;;;;6.25;3.97;;;;;;;;;;5020845;28;20061;-83
2021/09/03 00:36:15;;;;;;;7.13;4.45;;;;;;;;;;5016642;28;20065;-82
2021/09/03 00:38:42;;;;;;;6.55;4.25;;;;;;;;;;5021692;28;20058;-82
2021/09/03 00:41:08;;;;;;;7.47;4.20;;;;;;;;;;5029555;28;20689;-81
2021/09/03 00:43:35;;;;;;;6.65;4.25;;;;;;;;;;5015879;28;20091;-82
2021/09/03 00:46:01;;;;;;;7.30;4.43;;;;;;;;;;5013249;28;20054;-83
2021/09/03 00:48:27;;;;;;;9.48;4.95;;;;;;;;;;5022333;28;20064;-82
2021/09/03 00:50:54;;;;;;;6.93;4.30;;;;;;;;;;5016722;28;20506;-83
2021/09/03 00:53:21;;;;;;;7.53;4.32;;;;;;;;;;4999952;28;20049;-80
2021/09/03 00:55:47;;;;;;;7.53;4.22;;;;;;;;;;5028565;28;20061;-81
2021/09/03 00:58:14;;;;;;;7.05;4.68;;;;;;;;;;5026581;28;20630;-81
2021/09/03 01:00:40;;;;;;;8.35;4.03;;;;;;;;;;5028673;28;20114;-83
2021/09/03 01:03:06;;;;;;;8.07;5.15;;;;;;;;;;5015985;28;20069;-83
2021/09/03 01:05:33;;;;;;;6.28;4.20;;;;;;;;;;5023103;28;20060;-82
2021/09/03 01:07:59;;;;;;;7.55;4.80;;;;;;;;;;5018292;28;20065;-84
2021/09/03 01:10:26;;;;;;;6.90;3.95;;;;;;;;;;5025988;28;20058;-83
2021/09/03 01:12:52;;;;;;;8.07;4.40;;;;;;;;;;5029091;28;20504;-83
2021/09/03 01:15:18;;;;;;;8.32;4.45;;;;;;;;;;5028184;28;20068;-83
2021/09/03 01:17:45;;;;;;;7.47;4.00;;;;;;;;;;5022110;28;20419;-83
2021/09/03 01:20:12;;;;;;;6.25;3.90;;;;;;;;;;5030931;28;20062;-83
2021/09/03 01:22:39;;;;;;;9.70;5.00;;;;;;;;;;5018902;28;20626;-83
2021/09/03 01:25:06;;;;;;;6.72;3.88;;;;;;;;;;5027964;28;20061;-83
2021/09/03 01:27:33;;;;;;;7.30;4.25;;;;;;;;;;5019898;28;20053;-82
2021/09/03 01:29:59;;;;;;;7.95;4.55;;;;;;;;;;5027179;28;20138;-82
2021/09/03 01:32:25;;;;;;;5.95;4.10;;;;;;;;;;5029631;28;20057;-83
2021/09/03 01:34:52;;;;;;;6.82;3.92;;;;;;;;;;5022787;28;20510;-82
2021/09/03 01:37:20;;;;;;;8.73;4.43;;;;;;;;;;5024462;28;20073;-83
2021/09/03 01:39:46;;;;;;;7.28;4.40;;;;;;;;;;5027194;28;20053;-84
2021/09/03 01:42:12;;;;;;;6.25;4.20;;;;;;;;;;5020847;28;20065;-84
2021/09/03 01:44:39;;;;;;;9.25;4.32;;;;;;;;;;5026088;28;20524;-84
2021/09/03 01:47:05;;;;;;;7.28;4.00;;;;;;;;;;5028185;28;20140;-83
2021/09/03 01:49:32;;;;;;;8.68;4.18;;;;;;;;;;5022349;28;20049;-83
2021/09/03 01:51:58;;;;;;;8.00;4.10;;;;;;;;;;5023393;28;20481;-84
2021/09/03 01:54:24;;;;;;;7.30;4.97;;;;;;;;;;5017481;28;20068;-85
2021/09/03 01:56:51;;;;;;;8.75;4.50;;;;;;;;;;5019919;28;20056;-84
2021/09/03 01:59:17;;;;;;;6.43;3.80;;;;;;;;;;5025786;28;20497;-84
2021/09/03 02:01:43;;;;;;;8.63;4.43;;;;;;;;;;5029215;28;20115;-83
2021/09/03 02:04:10;;;;;;;7.03;4.10;;;;;;;;;;5025090;28;20092;-82
2021/09/03 02:06:36;;;;;;;7.85;4.45;;;;;;;;;;5018791;28;20070;-82
2021/09/03 02:09:03;;;;;;;6.93;4.05;;;;;;;;;;5028005;28;20473;-82
2021/09/03 02:11:29;;;;;;;6.88;4.18;;;;;;;;;;5035813;28;20076;-83
2021/09/03 02:13:55;;;;;;;7.45;4.07;;;;;;;;;;5028021;28;20057;-84
2021/09/03 02:16:22;;;;;;;6.70;4.22;;;;;;;;;;5028793;28;20064;-84
2021/09/03 02:18:48;;;;;;;6.88;4.07;;;;;;;;;;5021379;28;20053;-84
2021/09/03 02:21:15;;;;;;;8.90;4.47;;;;;;;;;;5025856;28;20057;-83
2021/09/03 02:23:41;;;;;;;8.63;4.45;;;;;;;;;;5028264;28;20096;-82
2021/09/03 02:26:08;;;;;;;7.80;4.45;;;;;;;;;;5026059;28;20033;-83
2021/09/03 02:28:34;;;;;;;8.50;4.40;;;;;;;;;;5017675;28;20478;-83
2021/09/03 02:31:01;;;;;;;7.53;3.95;;;;;;;;;;5025558;28;20053;-83
2021/09/03 02:33:27;;;;;;;7.25;4.18;;;;;;;;;;5025005;28;20072;-82
2021/09/03 02:35:54;;;;;;;7.55;4.50;;;;;;;;;;5016652;28;20065;-84
2021/09/03 02:38:20;;;;;;;7.40;4.07;;;;;;;;;;5027692;28;20073;-83
2021/09/03 02:40:47;;;;;;;8.45;4.32;;;;;;;;;;5026037;28;20079;-83
2021/09/03 02:43:13;;;;;;;8.35;4.78;;;;;;;;;;5021997;28;20461;-86
2021/09/03 02:45:40;;;;;;;7.70;4.35;;;;;;;;;;5027387;28;20064;-84
2021/09/03 02:48:06;;;;;;;7.75;4.43;;;;;;;;;;5021535;28;20057;-84
2021/09/03 02:50:32;;;;;;;6.45;3.75;;;;;;;;;;5021527;28;20489;-84
2021/09/03 02:52:59;;;;;;;7.45;4.13;;;;;;;;;;5027114;28;20112;-84
2021/09/03 02:55:26;;;;;;;6.75;3.88;;;;;;;;;;5035091;28;20049;-83
2021/09/03 02:57:53;;;;;;;6.93;4.25;;;;;;;;;;5019442;28;20064;-83
2021/09/03 03:00:19;;;;;;;8.65;4.45;;;;;;;;;;5027351;28;20115;-82
2021/09/03 03:02:46;;;;;;;7.32;4.28;;;;;;;;;;5020961;28;20053;-82
2021/09/03 03:05:12;;;;;;;6.40;3.97;;;;;;;;;;5019668;28;20072;-83
2021/09/03 03:07:39;;;;;;;7.97;3.65;;;;;;;;;;5029834;28;20610;-83
2021/09/03 03:10:06;;;;;;;7.40;4.20;;;;;;;;;;5027318;28;20057;-83
2021/09/03 03:12:33;;;;;;;8.05;4.22;;;;;;;;;;5023940;28;20041;-81
2021/09/03 03:14:59;;;;;;;8.23;4.10;;;;;;;;;;5039086;28;20065;-82
2021/09/03 03:17:26;;;;;;;7.68;3.85;;;;;;;;;;5023169;28;20501;-82
2021/09/03 03:19:53;;;;;;;6.90;3.67;;;;;;;;;;5024545;28;20058;-80
2021/09/03 03:22:19;;;;;;;7.10;3.80;;;;;;;;;;5027262;28;20061;-81
2021/09/03 03:24:46;;;;;;;9.05;4.15;;;;;;;;;;5028519;28;20779;-81
2021/09/03 03:27:12;;;;;;;8.05;3.95;;;;;;;;;;5025720;28;20070;-82
2021/09/03 03:29:38;;;;;;;7.25;4.30;;;;;;;;;;5021022;28;20057;-81
2021/09/03 03:32:05;;;;;;;9.98;4.03;;;;;;;;;;5020028;28;20506;-82
2021/09/03 03:34:31;;;;;;;6.97;3.80;;;;;;;;;;5017233;28;20128;-81
2021/09/03 03:36:58;;;;;;;5.38;3.33;;;;;;;;;;5017774;28;22536;-81
2021/09/03 03:39:24;;;;;;;7.57;4.18;;;;;;;;;;5023901;28;20694;-82
2021/09/03 03:41:52;;;;;;;7.32;3.63;;;;;;;;;;5012834;28;20069;-82
2021/09/03 03:44:18;;;;;;;7.90;3.97;;;;;;;;;;5019162;28;20607;-82
2021/09/03 03:46:45;;;;;;;7.70;4.03;;;;;;;;;;5017355;28;20057;-82
2021/09/03 03:49:12;;;;;;;8.50;4.30;;;;;;;;;;5017333;28;20085;-83
2021/09/03 03:51:38;;;;;;;7.43;4.00;;;;;;;;;;5013383;28;20061;-83
2021/09/03 03:54:05;;;;;;;8.48;3.80;;;;;;;;;;5021747;28;20041;-81
2021/09/03 03:56:31;;;;;;;7.63;4.20;;;;;;;;;;5020739;28;20454;-81
2021/09/03 03:58:57;;;;;;;9.57;4.07;;;;;;;;;;5011845;28;20026;-82
2021/09/03 04:01:24;;;;;;;9.50;3.97;;;;;;;;;;5020116;28;20041;-82
2021/09/03 04:03:50;;;;;;;8.20;3.80;;;;;;;;;;5017707;28;20486;-83
2021/09/03 04:06:17;;;;;;;6.93;3.58;;;;;;;;;;5022894;28;20061;-81
2021/09/03 04:08:43;;;;;;;10.18;4.72;;;;;;;;;;5023758;28;20049;-81
2021/09/03 04:11:09;;;;;;;8.43;4.15;;;;;;;;;;5019196;28;20056;-83
2021/09/03 04:13:36;;;;;;;8.43;3.90;;;;;;;;;;5013680;28;20445;-82
2021/09/03 04:16:02;;;;;;;7.95;3.80;;;;;;;;;;5020444;28;20033;-80
2021/09/03 04:18:34;;;;;;;8.23;3.80;;;;;;;;;;5016921;28;20430;-81
2021/09/03 04:21:01;;;;;;;7.32;4.05;;;;;;;;;;5018110;28;20551;-79
2021/09/03 04:23:27;;;;;;;7.82;4.35;;;;;;;;;;5020943;28;20078;-81
2021/09/03 04:25:54;;;;;;;8.18;3.70;;;;;;;;;;5018431;28;20048;-80
2021/09/03 04:28:20;;;;;;;8.77;3.70;;;;;;;;;;5017940;28;20112;-81
2021/09/03 04:30:46;;;;;;;8.13;3.83;;;;;;;;;;5014805;28;20053;-82
2021/09/03 04:33:13;;;;;;;8.48;4.47;;;;;;;;;;5013241;28;20814;-81
2021/09/03 04:35:39;;;;;;;11.20;4.78;;;;;;;;;;5012190;28;20062;-81
2021/09/03 04:38:06;;;;;;;14.85;4.50;;;;;;;;;;5014667;28;20060;-81
2021/09/03 04:40:32;;;;;;;11.07;4.25;;;;;;;;;;5019107;28;20049;-82
2021/09/03 04:42:59;;;;;;;6.85;3.20;;;;;;;;;;5015675;28;20065;-80
2021/09/03 04:45:25;;;;;;;10.43;4.30;;;;;;;;;;5018665;28;20080;-80
2021/09/03 04:47:52;;;;;;;11.27;4.13;;;;;;;;;;5024149;28;20110;-82
2021/09/03 04:50:19;;;;;;;9.00;3.72;;;;;;;;;;5012867;28;20462;-79
2021/09/03 04:52:45;;;;;;;9.77;4.05;;;;;;;;;;5018285;28;20072;-80
2021/09/03 04:55:12;;;;;;;12.10;4.53;;;;;;;;;;5012235;28;20057;-83
2021/09/03 04:57:39;;;;;;;8.52;3.67;;;;;;;;;;5018297;28;20060;-81
2021/09/03 05:00:07;;;;;;;8.85;3.88;;;;;;;;;;5022300;28;20486;-81
2021/09/03 05:02:33;;;;;;;9.50;3.45;;;;;;;;;;5010005;28;21529;-79
2021/09/03 05:04:59;;;;;;;10.02;4.03;;;;;;;;;;5029801;28;20127;-80
2021/09/03 05:07:26;;;;;;;12.18;4.43;;;;;;;;;;5022676;28;20065;-80
2021/09/03 05:09:52;;;;;;;6.35;3.05;;;;;;;;;;5022737;28;20209;-81
2021/09/03 05:12:18;;;;;;;9.82;3.97;;;;;;;;;;5017412;28;20060;-81
2021/09/03 05:14:45;;;;;;;10.57;3.85;;;;;;;;;;5025631;28;20077;-83
2021/09/03 05:17:11;;;;;;;8.88;3.95;;;;;;;;;;5023379;28;20033;-82
2021/09/03 05:19:38;;;;;;;9.05;3.88;;;;;;;;;;5010136;28;20053;-83
2021/09/03 05:22:04;;;;;;;8.70;3.60;;;;;;;;;;5016418;28;20061;-82
2021/09/03 05:24:31;;;;;;;9.30;3.58;;;;;;;;;;5019225;28;20065;-81
2021/09/03 05:26:57;;;;;;;6.93;3.40;;;;;;;;;;5014121;28;20450;-82
2021/09/03 05:29:23;;;;;;;7.90;3.47;;;;;;;;;;5016154;28;20075;-82
2021/09/03 05:31:50;;;;;;;10.52;4.10;;;;;;;;;;5010064;28;20062;-82
2021/09/03 05:34:16;;;;;;;7.78;3.13;;;;;;;;;;5015900;28;20131;-82
2021/09/03 05:36:42;;;;;;;11.55;4.25;;;;;;;;;;5015718;28;20486;-80
2021/09/03 05:39:09;;;;;;;9.50;4.00;;;;;;;;;;5014074;28;20495;-83
2021/09/03 05:41:35;;;;;;;8.00;3.88;;;;;;;;;;5017842;28;20062;-82
2021/09/03 05:44:02;;;;;;;7.97;3.60;;;;;;;;;;5013894;28;20060;-82
2021/09/03 05:46:28;;;;;;;7.38;3.08;;;;;;;;;;5014559;28;20068;-83
2021/09/03 05:48:55;;;;;;;8.07;3.88;;;;;;;;;;5019903;28;20564;-81
2021/09/03 05:51:21;;;;;;;9.00;3.50;;;;;;;;;;5014191;28;20111;-80
2021/09/03 05:53:48;;;;;;;8.70;3.05;;;;;;;;;;5030903;28;20492;-80
2021/09/03 05:56:14;;;;;;;6.63;3.00;;;;;;;;;;5026707;28;20033;-80
2021/09/03 05:58:41;;;;;;;9.52;3.20;;;;;;;;;;5021510;28;20753;-81
2021/09/03 06:01:07;;;;;;;7.43;3.50;;;;;;;;;;5027596;28;20072;-81
2021/09/03 06:03:34;;;;;;;13.15;4.10;;;;;;;;;;5022938;28;20127;-80
2021/09/03 06:06:00;;;;;;;8.63;3.10;;;;;;;;;;5026530;28;20072;-83
2021/09/03 06:08:27;;;;;;;4.72;2.65;;;;;;;;;;5027303;28;20814;-81
2021/09/03 06:10:53;;;;;;;6.60;3.30;;;;;;;;;;5020139;28;20076;-82
2021/09/03 06:13:19;;;;;;;8.15;3.20;;;;;;;;;;5026659;28;20061;-81
2021/09/03 06:15:46;;;;;;;6.57;3.25;;;;;;;;;;5029528;28;20064;-80
2021/09/03 06:18:12;;;;;;;8.20;3.53;;;;;;;;;;5021085;28;20037;-81
2021/09/03 06:20:41;;;;;;;6.10;3.05;;;;;;;;;;5012437;28;20022;-82
2021/09/03 06:23:07;;;;;;;10.18;3.78;;;;;;;;;;5017212;28;20641;-81
2021/09/03 06:25:34;;;;;;;9.38;2.97;;;;;;;;;;5015187;28;20054;-82
2021/09/03 06:28:01;;;;;;;9.45;3.10;;;;;;;;;;5023559;28;20053;-81
2021/09/03 06:30:27;;;;;;;7.75;3.22;;;;;;;;;;5014648;28;20442;-80
2021/09/03 06:32:54;;;;;;;8.05;3.50;;;;;;;;;;5020450;28;20054;-82
2021/09/03 06:35:20;;;;;;;7.63;3.35;;;;;;;;;;5023806;28;20061;-81
2021/09/03 06:37:46;;;;;;;7.95;3.13;;;;;;;;;;5025099;28;20139;-81
2021/09/03 06:40:13;;;;;;;8.88;3.38;;;;;;;;;;5020154;28;20055;-81
2021/09/03 06:42:39;;;;;;;9.70;3.55;;;;;;;;;;5019225;28;20061;-83
2021/09/03 06:45:06;;;;;;;6.47;3.22;;;;;;;;;;5019637;28;20068;-82
2021/09/03 06:47:32;;;;;;;7.88;3.60;;;;;;;;;;5013807;28;20127;-82
2021/09/03 06:49:59;;;;;;;6.13;2.90;;;;;;;;;;5023973;28;20064;-83
2021/09/03 06:52:28;;;;;;;5.85;3.17;;;;;;;;;;5029169;28;20579;-82
2021/09/03 06:54:55;;;;;;;9.77;3.03;;;;;;;;;;5022251;28;20049;-83
2021/09/03 06:57:22;;;;;;;7.53;3.15;;;;;;;;;;5024237;28;20111;-82
2021/09/03 06:59:49;;;;;;;8.35;3.15;;;;;;;;;;5018713;28;20442;-83
2021/09/03 07:02:15;;;;;;;7.80;3.78;;;;;;;;;;5024084;28;20068;-83
2021/09/03 07:04:42;;;;;;;5.22;2.80;;;;;;;;;;5025969;28;20459;-83
2021/09/03 07:07:08;;;;;;;8.30;3.10;;;;;;;;;;5024828;28;20073;-82
2021/09/03 07:09:35;;;;;;;6.43;2.95;;;;;;;;;;5020044;28;20053;-81
2021/09/03 07:12:01;;;;;;;7.07;2.92;;;;;;;;;;5016483;28;20522;-82
2021/09/03 07:14:28;;;;;;;9.15;3.50;;;;;;;;;;5022159;28;20057;-82
2021/09/03 07:16:54;;;;;;;9.05;3.20;;;;;;;;;;5030962;28;20310;-82
2021/09/03 07:19:20;;;;;;;6.22;2.92;;;;;;;;;;5021933;28;20079;-82
2021/09/03 07:21:47;;;;;;;6.22;2.92;;;;;;;;;;5020724;28;20524;-82
2021/09/03 07:24:13;;;;;;;7.88;3.20;;;;;;;;;;5025371;28;20076;-82
2021/09/03 07:26:40;;;;;;;6.63;3.13;;;;;;;;;;5023496;28;20060;-82
2021/09/03 07:29:06;;;;;;;7.68;3.50;;;;;;;;;;5019634;28;20558;-82
2021/09/03 07:31:33;;;;;;;6.38;2.55;;;;;;;;;;5028725;28;20053;-82
2021/09/03 07:33:59;;;;;;;6.93;3.08;;;;;;;;;;5009645;28;21410;-82
2021/09/03 07:36:26;;;;;;;10.52;3.65;;;;;;;;;;5002570;28;20065;-83
2021/09/03 07:38:52;;;;;;;7.43;3.17;;;;;;;;;;5011542;28;20077;-82
2021/09/03 07:41:21;;;;;;;9.43;3.63;;;;;;;;;;5003307;28;20062;-82
2021/09/03 07:43:48;;;;;;;8.20;3.50;;;;;;;;;;4994962;28;20058;-80
2021/09/03 07:46:14;;;;;;;9.18;3.22;;;;;;;;;;4991734;28;20451;-81
2021/09/03 07:48:41;;;;;;;6.63;2.83;;;;;;;;;;5006638;28;20140;-83
2021/09/03 07:51:07;;;;;;;6.53;3.08;;;;;;;;;;4999538;28;20068;-82
2021/09/03 07:53:34;;;;;;;8.73;3.30;;;;;;;;;;4994578;28;20073;-83
2021/09/03 07:56:00;;;;;;;7.25;3.10;;;;;;;;;;5004254;28;20089;-82
2021/09/03 07:58:26;;;;;;;6.82;3.15;;;;;;;;;;4997469;28;20054;-82
2021/09/03 08:00:53;;;;;;;7.03;3.08;;;;;;;;;;4992724;28;20076;-81
2021/09/03 08:03:19;;;;;;;7.88;3.40;;;;;;;;;;4995273;28;20081;-81
2021/09/03 08:05:46;;;;;;;5.68;2.97;;;;;;;;;;4995933;28;20066;-82
2021/09/03 08:08:12;;;;;;;6.88;3.20;;;;;;;;;;5003696;28;20069;-82
2021/09/03 08:10:39;;;;;;;6.25;2.85;;;;;;;;;;5000356;28;20061;-82
2021/09/03 08:13:06;;;;;;;6.35;3.08;;;;;;;;;;5000293;28;20128;-81
2021/09/03 08:15:33;;;;;;;9.88;3.42;;;;;;;;;;4995867;28;20076;-81
2021/09/03 08:18:00;;;;;;;8.82;3.25;;;;;;;;;;4994293;28;21477;-81
2021/09/03 08:20:27;;;;;;;7.75;3.30;;;;;;;;;;5002027;28;20077;-81
2021/09/03 08:22:53;;;;;;;7.38;3.40;;;;;;;;;;4998585;28;20568;-80
2021/09/03 08:25:20;;;;;;;7.47;3.28;;;;;;;;;;5012549;28;20046;-79
2021/09/03 08:27:47;;;;;;;5.82;3.15;;;;;;;;;;5016463;28;20558;-82
2021/09/03 08:30:13;;;;;;;7.50;4.05;;;;;;;;;;5009938;28;20527;-82
2021/09/03 08:32:40;;;;;;;5.80;2.88;;;;;;;;;;5025126;28;20592;-82
2021/09/03 08:35:06;;;;;;;7.85;2.88;;;;;;;;;;5020453;28;20061;-82
2021/09/03 08:37:33;;;;;;;8.85;3.65;;;;;;;;;;5023317;28;20073;-80
2021/09/03 08:39:59;;;;;;;6.85;3.35;;;;;;;;;;4996102;28;20061;-79
2021/09/03 08:42:26;;;;;;;6.10;2.90;;;;;;;;;;5005000;28;20701;-81
2021/09/03 08:44:55;;;;;;;7.25;3.00;;;;;;;;;;5000819;28;21693;-80
2021/09/03 08:47:22;;;;;;;8.20;3.00;;;;;;;;;;4994186;28;20066;-81
2021/09/03 08:49:50;;;;;;;6.43;2.92;;;;;;;;;;4999395;28;20486;-81
2021/09/03 08:52:17;;;;;;;7.40;3.40;;;;;;;;;;4993011;28;20128;-81
2021/09/03 08:54:44;;;;;;;7.45;3.10;;;;;;;;;;5001978;28;20513;-80
2021/09/03 08:57:12;;;;;;;6.55;2.78;;;;;;;;;;4996399;28;20062;-81
2021/09/03 08:59:39;;;;;;;6.78;2.90;;;;;;;;;;5012588;28;20119;-81
2021/09/03 09:02:12;;;;;;;6.95;3.67;;;;;;;;;;5005872;28;20061;-81
2021/09/03 09:04:46;;;;;;;6.18;2.80;;;;;;;;;;5006831;28;20669;-81
2021/09/03 09:07:13;;;;;;;7.45;2.97;;;;;;;;;;4999801;28;20088;-81
2021/09/03 09:09:44;;;;;;;7.35;3.00;;;;;;;;;;4994788;28;20490;-81
2021/09/03 09:12:20;;;;;;;6.10;2.97;;;;;;;;;;4999292;28;20073;-81
2021/09/03 09:15:03;;;;;;;6.78;3.47;;;;;;;;;;4997727;28;20070;-81
2021/09/03 09:20:33;;;;;;;4.82;2.83;;;;;;;;;;5002464;28;22226;-81
2021/09/03 09:23:03;;;;;;;7.55;3.47;;;;;;;;;;4991749;28;20037;-79
2021/09/03 09:25:37;;;;;;;6.95;3.25;;;;;;;;;;4999051;28;20523;-80
2021/09/03 09:28:20;;;;;;;6.50;3.35;;;;;;;;;;5012292;28;20486;-81
2021/09/03 09:30:47;;;;;;;5.85;2.65;;;;;;;;;;5016271;28;20065;-80
2021/09/03 09:33:17;;;;;;;6.50;3.10;;;;;;;;;;5026027;28;20061;-81
2021/09/03 09:35:54;;;;;;;4.90;2.40;;;;;;;;;;5024010;28;20060;-79
2021/09/03 09:38:21;;;;;;;7.65;3.33;;;;;;;;;;5029193;28;20037;-79
2021/09/03 09:40:50;;;;;;;6.07;2.72;;;;;;;;;;5034116;28;20057;-80
2021/09/03 09:43:23;;;;;;;6.95;2.95;;;;;;;;;;5026171;28;20125;-80
2021/09/03 09:46:09;;;;;;;5.85;2.92;;;;;;;;;;5025737;28;20112;-81
2021/09/03 09:48:52;;;;;;;5.63;2.53;;;;;;;;;;5032576;28;20516;-81
2021/09/03 09:51:27;;;;;;;5.53;3.10;;;;;;;;;;5029243;28;20065;-83
2021/09/03 09:53:54;;;;;;;5.25;2.83;;;;;;;;;;5024205;28;20196;-81
2021/09/03 09:56:21;;;;;;;6.07;3.10;;;;;;;;;;5014430;28;20121;-81
2021/09/03 09:58:49;;;;;;;5.22;3.03;;;;;;;;;;5019520;28;20104;-80
2021/09/03 10:01:17;;;;;;;4.80;2.97;;;;;;;;;;5027837;28;20124;-81
2021/09/03 10:03:44;;;;;;;6.07;2.90;;;;;;;;;;5013319;28;20152;-82
2021/09/03 10:06:10;;;;;;;5.88;3.10;;;;;;;;;;5017585;28;20096;-80
2021/09/03 10:08:37;;;;;;;6.82;3.47;;;;;;;;;;5027559;28;20045;-83
2021/09/03 10:11:04;;;;;;;6.38;2.88;;;;;;;;;;5023383;28;20111;-81
2021/09/03 10:13:30;;;;;;;7.07;3.47;;;;;;;;;;5028773;28;20053;-81
2021/09/03 10:15:58;;;;;;;6.07;3.25;;;;;;;;;;5023888;28;20050;-82
2021/09/03 10:18:24;;;;;;;5.95;2.90;;;;;;;;;;5025955;28;20065;-81
2021/09/03 10:20:51;;;;;;;6.25;3.00;;;;;;;;;;5020511;28;20068;-81
2021/09/03 10:23:36;;;;;;;5.07;2.97;;;;;;;;;;5019669;28;20505;-81
2021/09/03 10:26:04;;;;;;;6.03;3.08;;;;;;;;;;5018900;28;21572;-81
2021/09/03 10:28:31;;;;;;;6.93;2.97;;;;;;;;;;5016897;28;20434;-80
2021/09/03 10:31:07;;;;;;;6.20;3.13;;;;;;;;;;5020704;28;20065;-81
2021/09/03 10:33:38;;;;;;;5.95;3.20;;;;;;;;;;5016647;28;20034;-82
2021/09/03 10:36:04;;;;;;;7.93;3.30;;;;;;;;;;5019750;28;20053;-81
2021/09/03 10:38:32;;;;;;;6.45;3.45;;;;;;;;;;5022117;28;20084;-81
2021/09/03 10:40:59;;;;;;;6.43;3.03;;;;;;;;;;5020279;28;20353;-81
2021/09/03 10:43:42;;;;;;;6.13;3.70;;;;;;;;;;5016773;28;20140;-82
2021/09/03 10:46:10;;;;;;;6.05;3.33;;;;;;;;;;5015457;28;20115;-82
2021/09/03 10:48:36;;;;;;;4.85;3.00;;;;;;;;;;5012062;28;20061;-82
2021/09/03 10:51:04;;;;;;;6.72;3.75;;;;;;;;;;5025833;28;20252;-82
2021/09/03 10:53:38;;;;;;;6.57;3.50;;;;;;;;;;5030456;28;20099;-82
2021/09/03 10:56:14;;;;;;;5.88;3.70;;;;;;;;;;5018618;28;20034;-81
2021/09/03 10:58:44;;;;;;;5.57;3.30;;;;;;;;;;5006382;28;20662;-81
2021/09/03 11:01:10;;;;;;;4.53;2.80;;;;;;;;;;5019056;28;20092;-80
2021/09/03 11:03:40;;;;;;;6.53;3.33;;;;;;;;;;5014113;28;20054;-82
2021/09/03 11:06:06;;;;;;;5.55;3.28;;;;;;;;;;5015974;28;20061;-81
2021/09/03 11:08:39;;;;;;;6.50;3.00;;;;;;;;;;5019579;28;20072;-80
2021/09/03 11:11:44;;;;;;;7.47;3.17;;;;;;;;;;5028484;28;21202;-81
2021/09/03 11:14:21;;;;;;;6.75;3.33;;;;;;;;;;5016226;28;22197;-82
2021/09/03 11:16:56;;;;;;;5.35;2.80;;;;;;;;;;5026938;28;20045;-81
2021/09/03 11:19:30;;;;;;;6.28;3.17;;;;;;;;;;5032902;28;20118;-81
2021/09/03 11:22:26;;;;;;;5.32;3.30;;;;;;;;;;5017861;28;20049;-81
2021/09/03 11:24:55;;;;;;;5.70;3.13;;;;;;;;;;5026822;28;20527;-80
2021/09/03 11:27:23;;;;;;;5.20;3.05;;;;;;;;;;5023084;28;20575;-80
2021/09/03 11:29:56;;;;;;;6.45;3.33;;;;;;;;;;5019304;28;20135;-80
2021/09/03 11:32:24;;;;;;;5.53;3.00;;;;;;;;;;5028078;28;20058;-82
2021/09/03 11:34:50;;;;;;;5.05;3.20;;;;;;;;;;5031918;28;20045;-81
2021/09/03 11:37:17;;;;;;;6.25;3.20;;;;;;;;;;5024726;28;20175;-81
2021/09/03 11:39:44;;;;;;;4.95;2.83;;;;;;;;;;5025768;28;20057;-81
2021/09/03 11:42:27;;;;;;;4.97;3.05;;;;;;;;;;5032089;28;20064;-82
2021/09/03 11:44:55;;;;;;;6.60;2.90;;;;;;;;;;5029310;28;20068;-82
2021/09/03 11:47:23;;;;;;;5.25;2.90;;;;;;;;;;5025595;28;20218;-82
2021/09/03 11:49:50;;;;;;;5.07;3.00;;;;;;;;;;5028363;28;20046;-81
2021/09/03 11:52:17;;;;;;;5.53;3.08;;;;;;;;;;5021918;28;20148;-81
2021/09/03 11:54:50;;;;;;;4.70;3.10;;;;;;;;;;5022371;28;20123;-81
2021/09/03 11:57:17;;;;;;;4.80;2.75;;;;;;;;;;5018936;28;20052;-81
2021/09/03 11:59:53;;;;;;;5.88;3.67;;;;;;;;;;5019561;28;20056;-82
2021/09/03 12:02:20;;;;;;;5.50;3.50;;;;;;;;;;5014227;28;20123;-82
2021/09/03 12:04:46;;;;;;;5.18;3.10;;;;;;;;;;5015472;28;20103;-82
2021/09/03 12:07:20;;;;;;;5.55;2.90;;;;;;;;;;5018383;28;20133;-82
2021/09/03 12:09:46;;;;;;;5.15;3.30;;;;;;;;;;5019462;28;20520;-82
2021/09/03 12:12:21;;;;;;;4.65;3.15;;;;;;;;;;5019852;28;20064;-81
2021/09/03 12:15:01;;;;;;;5.20;2.80;;;;;;;;;;5021400;28;20088;-82
2021/09/03 12:17:37;;;;;;;5.13;2.70;;;;;;;;;;5013525;28;20069;-83
2021/09/03 12:20:10;;;;;;;5.13;3.28;;;;;;;;;;5013228;28;20045;-79
2021/09/03 12:23:06;;;;;;;7.10;3.78;;;;;;;;;;5013435;28;20136;-88
2021/09/03 12:25:34;;;;;;;5.93;3.10;;;;;;;;;;5014660;28;20508;-85
2021/09/03 12:28:08;;;;;;;6.00;3.40;;;;;;;;;;5020394;28;20112;-90
2021/09/03 12:30:34;;;;;;;7.97;3.35;;;;;;;;;;5022607;28;20080;-82
2021/09/03 12:33:19;;;;;;;8.45;3.22;;;;;;;;;;5021795;28;21372;-78
2021/09/03 12:35:45;;;;;;;5.63;3.45;;;;;;;;;;5020720;28;20069;-78
2021/09/03 12:38:12;;;;;;;6.90;3.55;;;;;;;;;;5020438;28;20070;-80
2021/09/03 12:40:38;;;;;;;6.20;3.85;;;;;;;;;;5024540;28;20057;-77
2021/09/03 12:43:11;;;;;;;6.55;4.30;;;;;;;;;;5017741;28;20075;-77
2021/09/03 12:45:41;;;;;;;7.60;4.13;;;;;;;;;;5013811;28;20065;-76
2021/09/03 12:48:08;;;;;;;7.32;4.07;;;;;;;;;;5016211;28;20062;-77
2021/09/03 12:50:34;;;;;;;7.55;4.28;;;;;;;;;;5018758;28;20054;-78
2021/09/03 12:53:00;;;;;;;5.13;3.65;;;;;;;;;;5013047;28;21328;-80
2021/09/03 12:55:27;;;;;;;7.13;4.25;;;;;;;;;;5016088;28;20065;-77
2021/09/03 12:57:53;;;;;;;6.38;4.28;;;;;;;;;;5021630;28;20506;-78
2021/09/03 13:00:20;;;;;;;7.28;4.28;;;;;;;;;;5019680;28;20122;-77
2021/09/03 13:02:46;;;;;;;8.13;4.13;;;;;;;;;;5024692;28;20091;-76
2021/09/03 13:05:12;;;;;;;6.97;4.30;;;;;;;;;;5024756;28;20543;-78
2021/09/03 13:07:39;;;;;;;8.95;4.43;;;;;;;;;;5014833;28;20065;-78
2021/09/03 13:10:05;;;;;;;6.57;4.07;;;;;;;;;;5017547;28;20064;-76
2021/09/03 13:12:32;;;;;;;7.55;4.60;;;;;;;;;;5019101;28;20660;-79
2021/09/03 13:14:58;;;;;;;8.15;4.68;;;;;;;;;;5019146;28;20493;-78
2021/09/03 13:17:25;;;;;;;8.25;4.18;;;;;;;;;;5017305;28;20135;-78
2021/09/03 13:19:51;;;;;;;6.93;4.15;;;;;;;;;;5016849;28;20067;-77
2021/09/03 13:22:17;;;;;;;7.90;4.32;;;;;;;;;;5020656;28;20061;-78
2021/09/03 13:24:44;;;;;;;6.93;4.55;;;;;;;;;;5011655;28;20061;-77
2021/09/03 13:27:10;;;;;;;9.15;4.90;;;;;;;;;;5019497;28;20069;-78
2021/09/03 13:29:37;;;;;;;8.48;4.40;;;;;;;;;;5016553;28;20061;-77
2021/09/03 13:32:03;;;;;;;8.70;4.82;;;;;;;;;;5022196;28;20730;-78
2021/09/03 13:34:30;;;;;;;7.22;4.15;;;;;;;;;;5006342;28;20061;-77
2021/09/03 13:36:56;;;;;;;6.72;4.20;;;;;;;;;;5014706;28;20175;-77
2021/09/03 13:39:23;;;;;;;7.05;4.07;;;;;;;;;;5012820;28;20100;-78
2021/09/03 13:41:49;;;;;;;9.55;4.97;;;;;;;;;;5014567;28;20079;-78
2021/09/03 13:44:15;;;;;;;10.07;4.30;;;;;;;;;;5013803;28;20839;-78
2021/09/03 13:46:43;;;;;;;7.30;4.38;;;;;;;;;;5019867;28;20058;-78
2021/09/03 13:49:10;;;;;;;7.13;4.78;;;;;;;;;;5015848;28;20068;-77
2021/09/03 13:51:36;;;;;;;9.27;4.68;;;;;;;;;;5016753;28;20053;-77
2021/09/03 13:54:03;;;;;;;8.40;4.85;;;;;;;;;;5014795;28;20061;-79
2021/09/03 13:56:29;;;;;;;9.35;4.70;;;;;;;;;;5019957;28;20603;-79
2021/09/03 13:58:56;;;;;;;6.57;4.20;;;;;;;;;;5020032;28;20062;-77
2021/09/03 14:01:22;;;;;;;9.38;4.65;;;;;;;;;;5016301;28;20073;-78
2021/09/03 14:03:48;;;;;;;7.15;4.55;;;;;;;;;;5017703;28;20058;-78
2021/09/03 14:06:17;;;;;;;7.75;4.65;;;;;;;;;;5018724;28;20074;-77
2021/09/03 14:08:43;;;;;;;9.02;4.95;;;;;;;;;;5013848;28;20054;-78
2021/09/03 14:11:10;;;;;;;8.30;5.00;;;;;;;;;;5013247;28;20058;-78
2021/09/03 14:13:37;;;;;;;7.32;4.45;;;;;;;;;;5024864;28;20057;-78
2021/09/03 14:16:04;;;;;;;8.95;5.18;;;;;;;;;;5026598;28;20064;-77
2021/09/03 14:18:30;;;;;;;8.20;4.75;;;;;;;;;;5022512;28;20061;-77
2021/09/03 14:20:56;;;;;;;8.50;4.82;;;;;;;;;;5024334;28;20500;-77
2021/09/03 14:23:23;;;;;;;9.18;4.50;;;;;;;;;;5027528;28;20061;-76
2021/09/03 14:25:50;;;;;;;10.13;5.00;;;;;;;;;;5026824;28;20069;-78
2021/09/03 14:28:16;;;;;;;11.20;5.35;;;;;;;;;;5030791;28;20063;-79
2021/09/03 14:30:43;;;;;;;11.02;5.30;;;;;;;;;;5027817;28;20053;-79
2021/09/03 14:33:09;;;;;;;10.10;4.75;;;;;;;;;;5027973;28;20061;-79
2021/09/03 14:35:36;;;;;;;10.65;4.82;;;;;;;;;;5023693;28;20052;-79
2021/09/03 14:38:02;;;;;;;9.27;5.03;;;;;;;;;;5026725;28;20069;-79
2021/09/03 14:40:29;;;;;;;8.90;5.68;;;;;;;;;;5022114;28;20069;-79
2021/09/03 14:42:55;;;;;;;7.88;5.05;;;;;;;;;;5014694;28;21043;-78
2021/09/03 14:45:22;;;;;;;9.57;5.20;;;;;;;;;;5027125;28;20069;-78
2021/09/03 14:47:49;;;;;;;8.30;4.93;;;;;;;;;;5019194;28;20065;-79
2021/09/03 14:50:15;;;;;;;11.32;6.18;;;;;;;;;;5018214;28;20698;-79